Time;durP1;ratioP1;P1;durP2;ratioP2;P2;SDS_P1;SDS_P2;PMS_P1;PMS_P2;Temp;Humidity;BMP_temperature;BMP_pressure;BME280_temperature;BME280_humidity;BME280_pressure;Samples;Min_cycle;Max_cycle;Signal;HPM_P1;HPM_P2
2024/01/01 00:01:30;;;;;;;;;;;5.10;99.90;;;;;;5118354;28;19911;-75
2024/01/01 00:03:56;;;;;;;;;;;5.10;99.90;;;;;;5114377;28;19919;-75
2024/01/01 00:06:21;;;;;;;;;;;5.20;99.90;;;;;;5107084;28;19903;-76
2024/01/01 00:08:47;;;;;;;;;;;5.20;99.90;;;;;;5103470;28;19919;-75
2024/01/01 00:11:12;;;;;;;;;;;5.30;99.90;;;;;;5108101;28;19925;-75
2024/01/01 00:13:38;;;;;;;;;;;5.30;99.90;;;;;;5117619;28;19903;-75
2024/01/01 00:16:03;;;;;;;;;;;5.40;99.90;;;;;;5117012;28;19961;-75
2024/01/01 00:18:29;;;;;;;;;;;5.50;99.90;;;;;;5116553;28;19908;-75
2024/01/01 00:20:54;;;;;;;;;;;5.60;99.90;;;;;;5116864;28;19942;-75
2024/01/01 00:23:20;;;;;;;;;;;5.60;99.90;;;;;;5116499;28;19990;-75
2024/01/01 00:25:45;;;;;;;;;;;5.60;99.90;;;;;;5116990;28;19945;-77
2024/01/01 00:28:11;;;;;;;;;;;5.70;99.90;;;;;;5117624;28;19904;-75
2024/01/01 00:30:37;;;;;;;;;;;5.70;99.90;;;;;;5118067;28;19912;-75
2024/01/01 00:33:03;;;;;;;;;;;5.70;99.90;;;;;;5117360;28;19995;-75
2024/01/01 00:35:29;;;;;;;;;;;5.80;99.90;;;;;;5118078;28;19943;-76
2024/01/01 00:37:54;;;;;;;;;;;5.80;99.90;;;;;;5115547;28;19911;-76
2024/01/01 00:40:20;;;;;;;;;;;5.80;99.90;;;;;;5117796;28;19904;-76
2024/01/01 00:42:47;;;;;;;;;;;5.80;99.90;;;;;;5117124;28;20369;-76
2024/01/01 00:45:13;;;;;;;;;;;5.80;99.90;;;;;;5117966;28;19939;-76
2024/01/01 00:47:38;;;;;;;;;;;5.90;99.90;;;;;;5117473;28;19923;-76
2024/01/01 00:50:04;;;;;;;;;;;5.90;99.90;;;;;;5117869;28;19907;-76
2024/01/01 00:52:30;;;;;;;;;;;6.00;99.90;;;;;;5117456;28;19912;-76
2024/01/01 00:54:56;;;;;;;;;;;5.90;99.90;;;;;;5118041;28;20763;-76
2024/01/01 00:57:21;;;;;;;;;;;5.90;99.90;;;;;;5115543;28;19948;-76
2024/01/01 00:59:47;;;;;;;;;;;6.00;99.90;;;;;;5116146;28;19982;-76
2024/01/01 01:02:12;;;;;;;;;;;6.00;99.90;;;;;;5117376;28;19940;-75
2024/01/01 01:04:38;;;;;;;;;;;6.00;99.90;;;;;;5117391;28;19960;-76
2024/01/01 01:07:05;;;;;;;;;;;6.00;99.90;;;;;;5115675;28;20021;-76
2024/01/01 01:09:30;;;;;;;;;;;6.00;99.90;;;;;;5117468;28;19943;-76
2024/01/01 01:11:56;;;;;;;;;;;5.90;99.90;;;;;;5116997;28;19903;-77
2024/01/01 01:14:21;;;;;;;;;;;5.90;99.90;;;;;;5117154;28;19908;-76
2024/01/01 01:16:47;;;;;;;;;;;5.80;99.90;;;;;;5116500;28;19915;-76
2024/01/01 01:19:12;;;;;;;;;;;5.80;99.90;;;;;;5114964;28;20009;-76
2024/01/01 01:21:38;;;;;;;;;;;5.80;99.90;;;;;;5115160;28;19908;-76
2024/01/01 01:24:04;;;;;;;;;;;5.90;99.90;;;;;;5115469;28;19908;-76
2024/01/01 01:26:29;;;;;;;;;;;5.90;99.90;;;;;;5115368;28;20440;-76
2024/01/01 01:28:56;;;;;;;;;;;6.00;99.90;;;;;;5116973;28;19948;-77
2024/01/01 01:31:22;;;;;;;;;;;6.00;99.90;;;;;;5116493;28;19915;-77
2024/01/01 01:33:48;;;;;;;;;;;6.10;99.90;;;;;;5115259;28;19906;-76
2024/01/01 01:36:14;;;;;;;;;;;6.10;99.90;;;;;;5116448;28;19904;-76
2024/01/01 01:38:39;;;;;;;;;;;6.10;99.90;;;;;;5116758;28;19912;-76
2024/01/01 01:41:05;;;;;;;;;;;6.10;99.90;;;;;;5114754;28;20430;-77
2024/01/01 01:43:30;;;;;;;;;;;6.10;99.90;;;;;;5115353;28;19904;-76
2024/01/01 01:45:57;;;;;;;;;;;6.20;99.90;;;;;;5116348;28;19903;-77
2024/01/01 01:48:22;;;;;;;;;;;6.20;99.90;;;;;;5116423;28;19908;-76
2024/01/01 01:50:49;;;;;;;;;;;6.10;99.90;;;;;;5115179;28;19995;-77
2024/01/01 01:53:15;;;;;;;;;;;6.10;99.90;;;;;;5116648;28;19912;-76
2024/01/01 01:55:42;;;;;;;;;;;6.10;99.90;;;;;;5116214;28;19965;-77
2024/01/01 01:58:09;;;;;;;;;;;6.10;99.90;;;;;;5115432;28;19916;-77
2024/01/01 02:00:34;;;;;;;;;;;6.10;99.90;;;;;;5116287;28;19907;-78
2024/01/01 02:03:00;;;;;;;;;;;6.10;99.90;;;;;;5115065;28;20010;-77
2024/01/01 02:05:26;;;;;;;;;;;6.00;99.90;;;;;;5114797;28;19994;-77
2024/01/01 02:07:51;;;;;;;;;;;6.00;99.90;;;;;;5114745;28;19904;-77
2024/01/01 02:10:17;;;;;;;;;;;6.00;99.90;;;;;;5115804;28;19931;-76
2024/01/01 02:12:46;;;;;;;;;;;6.00;99.90;;;;;;5114983;28;19904;-76
2024/01/01 02:15:11;;;;;;;;;;;5.90;99.90;;;;;;5114276;28;19904;-76
2024/01/01 02:17:37;;;;;;;;;;;5.90;99.90;;;;;;5116210;28;19914;-77
2024/01/01 02:20:03;;;;;;;;;;;5.90;99.90;;;;;;5114836;28;19904;-76
2024/01/01 02:22:38;;;;;;;;;;;5.90;99.90;;;;;;5114904;28;19908;-76
2024/01/01 02:25:04;;;;;;;;;;;5.90;99.90;;;;;;5115930;28;19908;-76
2024/01/01 02:27:30;;;;;;;;;;;5.90;99.90;;;;;;5116104;28;20303;-77
2024/01/01 02:29:55;;;;;;;;;;;5.80;99.90;;;;;;5116553;28;19908;-76
2024/01/01 02:32:21;;;;;;;;;;;5.80;99.90;;;;;;5118491;28;19908;-76
2024/01/01 02:34:49;;;;;;;;;;;5.80;99.90;;;;;;5119970;28;20013;-76
2024/01/01 02:37:14;;;;;;;;;;;5.80;99.90;;;;;;5118878;28;19923;-76
2024/01/01 02:39:40;;;;;;;;;;;5.80;99.90;;;;;;5120005;27;20308;-76
2024/01/01 02:42:05;;;;;;;;;;;5.80;99.90;;;;;;5120156;28;19908;-76
2024/01/01 02:44:31;;;;;;;;;;;5.80;99.90;;;;;;5118666;28;19908;-77
2024/01/01 02:46:56;;;;;;;;;;;5.80;99.90;;;;;;5117324;28;19987;-77
2024/01/01 02:49:22;;;;;;;;;;;5.80;99.90;;;;;;5106406;28;19931;-77
2024/01/01 02:51:48;;;;;;;;;;;5.80;99.90;;;;;;5119948;28;19910;-77
2024/01/01 02:54:15;;;;;;;;;;;5.80;99.90;;;;;;5119905;28;19904;-77
2024/01/01 02:56:40;;;;;;;;;;;5.80;99.90;;;;;;5119301;28;20352;-77
2024/01/01 02:59:06;;;;;;;;;;;5.80;99.90;;;;;;5118495;28;19908;-76
2024/01/01 03:01:31;;;;;;;;;;;5.80;99.90;;;;;;5119787;28;20378;-77
2024/01/01 03:03:57;;;;;;;;;;;5.80;99.90;;;;;;5117920;28;19946;-77
2024/01/01 03:06:22;;;;;;;;;;;5.70;99.90;;;;;;5119657;27;20418;-76
2024/01/01 03:08:48;;;;;;;;;;;5.80;99.90;;;;;;5119211;28;20382;-77
2024/01/01 03:11:14;;;;;;;;;;;5.70;99.90;;;;;;5109217;28;20386;-77
2024/01/01 03:13:42;;;;;;;;;;;5.80;99.90;;;;;;5116047;28;20269;-78
2024/01/01 03:16:08;;;;;;;;;;;5.80;99.90;;;;;;5119546;28;20276;-77
2024/01/01 03:18:34;;;;;;;;;;;5.80;99.90;;;;;;5119015;28;20012;-76
2024/01/01 03:20:59;;;;;;;;;;;5.90;99.90;;;;;;5118016;28;19908;-76
2024/01/01 03:23:25;;;;;;;;;;;6.00;99.90;;;;;;5117066;28;19955;-76
2024/01/01 03:25:51;;;;;;;;;;;6.00;99.90;;;;;;5117486;28;19908;-76
2024/01/01 03:28:16;;;;;;;;;;;6.00;99.90;;;;;;5116103;28;19908;-77
2024/01/01 03:30:42;;;;;;;;;;;5.90;99.90;;;;;;5107369;28;19907;-78
2024/01/01 03:33:08;;;;;;;;;;;5.90;99.90;;;;;;5118819;28;19904;-76
2024/01/01 03:35:34;;;;;;;;;;;5.90;99.90;;;;;;5117671;28;19943;-77
2024/01/01 03:38:00;;;;;;;;;;;5.80;99.90;;;;;;5118711;28;20367;-76
2024/01/01 03:40:26;;;;;;;;;;;5.80;99.90;;;;;;5118013;28;19908;-76
2024/01/01 03:42:52;;;;;;;;;;;5.80;99.90;;;;;;5118400;28;19910;-76
2024/01/01 03:45:18;;;;;;;;;;;5.80;99.90;;;;;;5118985;28;19908;-76
2024/01/01 03:47:44;;;;;;;;;;;5.90;99.90;;;;;;5118710;28;20394;-77
2024/01/01 03:50:09;;;;;;;;;;;6.00;99.90;;;;;;5118700;28;19971;-77
2024/01/01 03:52:35;;;;;;;;;;;6.20;99.90;;;;;;5115429;28;19912;-76
2024/01/01 03:55:00;;;;;;;;;;;6.40;99.90;;;;;;5108355;28;19979;-76
2024/01/01 03:57:26;;;;;;;;;;;6.40;99.90;;;;;;5118552;28;19920;-77
2024/01/01 03:59:52;;;;;;;;;;;6.40;99.90;;;;;;5117211;28;20061;-77
2024/01/01 04:02:18;;;;;;;;;;;6.40;99.90;;;;;;5115319;28;20382;-77
2024/01/01 04:04:44;;;;;;;;;;;6.50;99.90;;;;;;5099650;28;19919;-76
2024/01/01 04:07:10;;;;;;;;;;;6.50;99.90;;;;;;5102993;28;19904;-76
2024/01/01 04:09:35;;;;;;;;;;;6.40;99.90;;;;;;5110512;28;19911;-76
2024/01/01 04:12:01;;;;;;;;;;;6.30;99.90;;;;;;5118344;28;19904;-76
2024/01/01 04:14:26;;;;;;;;;;;6.30;99.90;;;;;;5118283;28;19908;-77
2024/01/01 04:16:52;;;;;;;;;;;6.30;99.90;;;;;;5118032;28;19961;-76
2024/01/01 04:19:17;;;;;;;;;;;6.30;99.90;;;;;;5116837;28;19926;-76
2024/01/01 04:21:43;;;;;;;;;;;6.40;99.90;;;;;;5118039;28;19908;-76
2024/01/01 04:24:09;;;;;;;;;;;6.50;99.90;;;;;;5118112;28;19907;-78
2024/01/01 04:26:34;;;;;;;;;;;6.60;99.90;;;;;;5108177;28;19914;-77
2024/01/01 04:29:00;;;;;;;;;;;6.70;99.90;;;;;;5116583;28;19959;-77
2024/01/01 04:31:25;;;;;;;;;;;6.90;99.90;;;;;;5117703;28;20052;-76
2024/01/01 04:33:51;;;;;;;;;;;7.00;99.90;;;;;;5117875;28;19903;-77
2024/01/01 04:36:16;;;;;;;;;;;7.10;99.90;;;;;;5117517;28;19956;-79
2024/01/01 04:38:42;;;;;;;;;;;7.20;99.90;;;;;;5116163;28;19918;-76
2024/01/01 04:41:09;;;;;;;;;;;7.20;99.90;;;;;;5117450;28;19976;-76
2024/01/01 04:43:39;;;;;;;;;;;7.20;99.90;;;;;;5116715;28;19919;-76
2024/01/01 04:46:04;;;;;;;;;;;7.30;99.90;;;;;;5115574;28;20368;-76
2024/01/01 04:48:30;;;;;;;;;;;7.30;99.90;;;;;;5117812;28;19911;-76
2024/01/01 04:50:55;;;;;;;;;;;7.40;99.90;;;;;;5117830;28;19912;-76
2024/01/01 04:53:21;;;;;;;;;;;7.40;99.90;;;;;;5117378;28;19910;-77
2024/01/01 04:55:46;;;;;;;;;;;7.40;99.90;;;;;;5115596;28;19911;-76
2024/01/01 04:58:12;;;;;;;;;;;7.50;99.90;;;;;;5117464;28;20320;-76
2024/01/01 05:00:38;;;;;;;;;;;7.50;99.90;;;;;;5117173;28;20446;-76
2024/01/01 05:03:03;;;;;;;;;;;7.50;99.90;;;;;;5115865;28;19912;-76
2024/01/01 05:05:29;;;;;;;;;;;7.50;99.90;;;;;;5115452;28;19907;-77
2024/01/01 05:07:54;;;;;;;;;;;7.50;99.90;;;;;;5117305;28;20047;-77
2024/01/01 05:10:20;;;;;;;;;;;7.50;99.90;;;;;;5115392;28;19903;-76
2024/01/01 05:12:45;;;;;;;;;;;7.50;99.90;;;;;;5114890;28;19904;-76
2024/01/01 05:15:11;;;;;;;;;;;7.50;99.90;;;;;;5115895;28;19904;-76
2024/01/01 05:17:37;;;;;;;;;;;7.50;99.90;;;;;;5116020;28;19915;-76
2024/01/01 05:20:03;;;;;;;;;;;7.50;99.90;;;;;;5115554;28;20011;-76
2024/01/01 05:22:30;;;;;;;;;;;7.50;99.90;;;;;;5115568;28;19908;-76
2024/01/01 05:24:55;;;;;;;;;;;7.50;99.90;;;;;;5115155;28;19907;-76
2024/01/01 05:27:21;;;;;;;;;;;7.50;99.90;;;;;;5117105;28;19904;-76
2024/01/01 05:29:46;;;;;;;;;;;7.50;99.90;;;;;;5115795;28;19904;-76
2024/01/01 05:32:12;;;;;;;;;;;7.50;99.90;;;;;;5116206;28;19910;-76
2024/01/01 05:34:39;;;;;;;;;;;7.50;99.90;;;;;;5115153;28;19911;-76
2024/01/01 05:37:05;;;;;;;;;;;7.50;99.90;;;;;;5116762;28;19922;-76
2024/01/01 05:39:30;;;;;;;;;;;7.50;99.90;;;;;;5116710;28;19907;-76
2024/01/01 05:41:56;;;;;;;;;;;7.50;99.90;;;;;;5115143;28;19904;-77
2024/01/01 05:44:21;;;;;;;;;;;7.50;99.90;;;;;;5116195;28;19904;-76
2024/01/01 05:46:47;;;;;;;;;;;7.50;99.90;;;;;;5115303;28;19904;-76
2024/01/01 05:49:12;;;;;;;;;;;7.40;99.90;;;;;;5114987;28;19903;-76
2024/01/01 05:51:38;;;;;;;;;;;7.40;99.90;;;;;;5112156;28;19912;-77
2024/01/01 05:54:03;;;;;;;;;;;7.30;99.90;;;;;;5097163;28;19904;-77
2024/01/01 05:56:29;;;;;;;;;;;7.30;99.90;;;;;;5114560;28;19912;-76
2024/01/01 05:58:54;;;;;;;;;;;7.20;99.90;;;;;;5113922;28;19911;-75
2024/01/01 06:01:20;;;;;;;;;;;7.10;99.90;;;;;;5116215;28;19915;-75
2024/01/01 06:03:46;;;;;;;;;;;7.10;99.90;;;;;;5115368;28;19915;-75
2024/01/01 06:06:12;;;;;;;;;;;7.00;99.90;;;;;;5115258;28;19990;-75
2024/01/01 06:08:37;;;;;;;;;;;6.90;99.90;;;;;;5115783;28;19940;-76
2024/01/01 06:11:03;;;;;;;;;;;6.90;99.90;;;;;;5114763;28;19928;-76
2024/01/01 06:13:28;;;;;;;;;;;6.70;99.90;;;;;;5116358;28;19904;-75
2024/01/01 06:15:54;;;;;;;;;;;6.60;99.90;;;;;;5116326;28;19937;-75
2024/01/01 06:18:21;;;;;;;;;;;6.50;99.90;;;;;;5114612;28;20295;-75
2024/01/01 06:20:46;;;;;;;;;;;6.50;99.90;;;;;;5116038;28;19908;-75
2024/01/01 06:23:12;;;;;;;;;;;6.40;99.90;;;;;;5115600;28;19911;-76
2024/01/01 06:25:37;;;;;;;;;;;6.30;99.90;;;;;;5116067;28;19904;-76
2024/01/01 06:28:03;;;;;;;;;;;6.30;99.90;;;;;;5115686;28;19923;-76
2024/01/01 06:30:30;;;;;;;;;;;6.20;99.90;;;;;;5114899;28;19911;-75
2024/01/01 06:32:55;;;;;;;;;;;6.10;99.90;;;;;;5113364;28;19903;-76
2024/01/01 06:35:21;;;;;;;;;;;6.10;99.90;;;;;;5115890;28;19915;-76
2024/01/01 06:37:46;;;;;;;;;;;6.10;99.90;;;;;;5114113;28;19916;-75
2024/01/01 06:40:12;;;;;;;;;;;6.10;99.90;;;;;;5114324;28;19953;-75
2024/01/01 06:42:38;;;;;;;;;;;6.00;99.90;;;;;;5115922;28;19949;-75
2024/01/01 06:45:05;;;;;;;;;;;6.00;99.90;;;;;;5114657;28;19904;-75
2024/01/01 06:47:31;;;;;;;;;;;6.00;99.90;;;;;;5115715;28;19911;-76
2024/01/01 06:49:56;;;;;;;;;;;6.00;99.90;;;;;;5114566;28;19908;-76
2024/01/01 06:52:22;;;;;;;;;;;6.00;99.90;;;;;;5115340;28;20395;-75
2024/01/01 06:54:48;;;;;;;;;;;6.00;99.90;;;;;;5115828;28;19952;-75
2024/01/01 06:57:14;;;;;;;;;;;6.10;99.90;;;;;;5115422;28;19912;-76
2024/01/01 06:59:39;;;;;;;;;;;6.10;99.90;;;;;;5115830;28;19911;-75
2024/01/01 07:02:05;;;;;;;;;;;6.10;99.90;;;;;;5115383;28;19904;-75
2024/01/01 07:04:30;;;;;;;;;;;6.20;99.90;;;;;;5115891;28;19904;-76
2024/01/01 07:06:56;;;;;;;;;;;6.20;99.90;;;;;;5115411;28;20019;-76
2024/01/01 07:09:22;;;;;;;;;;;6.30;99.90;;;;;;5114229;28;19994;-76
2024/01/01 07:11:47;;;;;;;;;;;6.40;99.90;;;;;;5114265;28;19994;-76
2024/01/01 07:14:13;;;;;;;;;;;6.40;99.90;;;;;;5114289;28;20002;-75
2024/01/01 07:16:39;;;;;;;;;;;6.40;99.90;;;;;;5115881;28;20260;-75
2024/01/01 07:19:05;;;;;;;;;;;6.50;99.90;;;;;;5119675;28;20638;-75
2024/01/01 07:21:31;;;;;;;;;;;6.60;99.90;;;;;;5118118;28;20283;-75
2024/01/01 07:23:57;;;;;;;;;;;6.70;99.90;;;;;;5119355;28;19903;-75
2024/01/01 07:26:22;;;;;;;;;;;6.80;99.90;;;;;;5118833;28;19915;-75
2024/01/01 07:28:48;;;;;;;;;;;6.70;99.90;;;;;;5119188;28;19913;-75
2024/01/01 07:31:13;;;;;;;;;;;6.70;99.90;;;;;;5117798;28;19970;-75
2024/01/01 07:33:39;;;;;;;;;;;6.70;99.90;;;;;;5119208;27;19987;-74
2024/01/01 07:36:13;;;;;;;;;;;6.70;99.90;;;;;;5118835;28;19907;-75
2024/01/01 07:38:39;;;;;;;;;;;6.70;99.90;;;;;;5118933;28;19985;-74
2024/01/01 07:41:05;;;;;;;;;;;6.70;99.90;;;;;;5118575;28;19908;-75
2024/01/01 07:43:30;;;;;;;;;;;6.70;99.90;;;;;;5117744;28;19911;-74
2024/01/01 07:45:56;;;;;;;;;;;6.60;99.90;;;;;;5115255;28;19907;-75
2024/01/01 07:48:21;;;;;;;;;;;6.70;99.90;;;;;;5119020;28;20006;-75
2024/01/01 07:50:47;;;;;;;;;;;6.70;99.90;;;;;;5117364;28;20283;-75
2024/01/01 07:53:12;;;;;;;;;;;6.70;99.90;;;;;;5117386;28;20374;-75
2024/01/01 07:55:38;;;;;;;;;;;6.70;99.90;;;;;;5116489;28;20011;-75
2024/01/01 07:58:03;;;;;;;;;;;6.80;99.90;;;;;;5117062;28;20010;-75
2024/01/01 08:00:29;;;;;;;;;;;6.80;99.90;;;;;;5116863;28;19990;-75
2024/01/01 08:02:54;;;;;;;;;;;6.90;99.90;;;;;;5117538;28;19949;-75
2024/01/01 08:05:20;;;;;;;;;;;7.00;99.90;;;;;;5118168;28;19904;-76
2024/01/01 08:07:47;;;;;;;;;;;7.00;99.90;;;;;;5118240;28;19903;-76
2024/01/01 08:10:17;;;;;;;;;;;7.10;99.90;;;;;;5106028;28;19995;-81
2024/01/01 08:12:42;;;;;;;;;;;7.10;99.90;;;;;;5093740;28;19955;-84
2024/01/01 08:15:08;;;;;;;;;;;7.20;99.90;;;;;;5097484;28;19904;-82
2024/01/01 08:17:34;;;;;;;;;;;7.20;99.90;;;;;;5106946;28;20034;-83
2024/01/01 08:19:59;;;;;;;;;;;7.30;99.90;;;;;;5105252;28;19912;-85
2024/01/01 08:22:25;;;;;;;;;;;7.30;99.90;;;;;;5104558;28;19946;-86
2024/01/01 08:24:50;;;;;;;;;;;7.30;99.90;;;;;;5093441;28;19904;-83
2024/01/01 08:27:16;;;;;;;;;;;7.40;99.90;;;;;;5093062;28;19927;-81
2024/01/01 08:29:42;;;;;;;;;;;7.40;99.90;;;;;;5093125;28;19908;-81
2024/01/01 08:32:08;;;;;;;;;;;7.50;99.90;;;;;;5100461;28;19958;-83
2024/01/01 08:34:34;;;;;;;;;;;7.60;99.90;;;;;;5093886;28;19908;-82
2024/01/01 08:37:00;;;;;;;;;;;7.60;99.90;;;;;;5092596;28;19923;-83
2024/01/01 08:39:25;;;;;;;;;;;7.70;99.90;;;;;;5093007;28;19908;-83
2024/01/01 08:41:51;;;;;;;;;;;7.80;99.90;;;;;;5103200;28;19912;-82
2024/01/01 08:44:16;;;;;;;;;;;7.80;99.90;;;;;;5098339;28;19908;-81
2024/01/01 08:46:42;;;;;;;;;;;7.80;99.90;;;;;;5105267;28;19908;-81
2024/01/01 08:49:07;;;;;;;;;;;7.90;99.90;;;;;;5093233;28;20696;-82
2024/01/01 08:51:33;;;;;;;;;;;8.00;99.90;;;;;;5092956;28;19934;-85
2024/01/01 08:53:59;;;;;;;;;;;8.00;99.90;;;;;;5098266;28;19960;-84
2024/01/01 08:56:24;;;;;;;;;;;8.10;99.90;;;;;;5096608;28;20018;-83
2024/01/01 08:58:50;;;;;;;;;;;8.20;99.90;;;;;;5093324;28;19916;-83
2024/01/01 09:01:16;;;;;;;;;;;8.20;99.90;;;;;;5092901;28;19911;-83
2024/01/01 09:03:41;;;;;;;;;;;8.20;99.90;;;;;;5091877;28;19911;-83
2024/01/01 09:06:07;;;;;;;;;;;8.20;99.90;;;;;;5094664;28;19919;-82
2024/01/01 09:08:32;;;;;;;;;;;8.20;99.90;;;;;;5103439;28;20332;-82
2024/01/01 09:10:58;;;;;;;;;;;8.30;99.90;;;;;;5092669;28;19915;-81
2024/01/01 09:13:23;;;;;;;;;;;8.30;99.90;;;;;;5095344;28;19916;-84
2024/01/01 09:15:49;;;;;;;;;;;8.40;99.90;;;;;;5105377;28;19908;-83
2024/01/01 09:18:15;;;;;;;;;;;8.50;99.90;;;;;;5092247;28;20531;-88
2024/01/01 09:20:41;;;;;;;;;;;8.50;99.90;;;;;;5100901;28;19908;-82
2024/01/01 09:23:07;;;;;;;;;;;8.60;99.90;;;;;;5105089;28;20041;-83
2024/01/01 09:25:40;;;;;;;;;;;8.70;99.90;;;;;;5095696;28;20352;-82
2024/01/01 09:28:06;;;;;;;;;;;8.70;99.90;;;;;;5092455;28;19912;-82
2024/01/01 09:30:31;;;;;;;;;;;8.80;99.90;;;;;;5094352;28;19908;-83
2024/01/01 09:32:57;;;;;;;;;;;8.90;99.90;;;;;;5095398;28;19915;-82
2024/01/01 09:35:22;;;;;;;;;;;8.90;99.90;;;;;;5092480;28;19904;-84
2024/01/01 09:37:52;;;;;;;;;;;9.00;99.90;;;;;;5108411;28;19916;-83
2024/01/01 09:40:18;;;;;;;;;;;9.00;99.90;;;;;;5101200;28;20024;-84
2024/01/01 09:42:47;;;;;;;;;;;9.10;99.90;;;;;;5092492;28;20235;-82
2024/01/01 09:45:12;;;;;;;;;;;9.00;99.90;;;;;;5103379;28;19904;-83
2024/01/01 09:47:39;;;;;;;;;;;9.00;99.90;;;;;;5099165;28;19911;-82
2024/01/01 09:50:05;;;;;;;;;;;9.00;99.90;;;;;;5101250;28;19954;-85
2024/01/01 09:52:30;;;;;;;;;;;8.90;99.90;;;;;;5091944;27;19915;-83
2024/01/01 09:54:56;;;;;;;;;;;8.90;99.90;;;;;;5091516;28;19988;-81
2024/01/01 09:57:21;;;;;;;;;;;8.80;99.90;;;;;;5091581;28;20458;-82
2024/01/01 09:59:48;;;;;;;;;;;8.80;99.90;;;;;;5099844;28;19927;-83
2024/01/01 10:02:14;;;;;;;;;;;8.80;99.90;;;;;;5097912;28;19907;-82
2024/01/01 10:04:39;;;;;;;;;;;8.90;99.90;;;;;;5106805;28;19903;-82
2024/01/01 10:07:05;;;;;;;;;;;8.90;99.90;;;;;;5100787;28;20321;-82
2024/01/01 10:09:32;;;;;;;;;;;9.00;99.90;;;;;;5097748;28;19904;-83
2024/01/01 10:12:09;;;;;;;;;;;9.00;99.90;;;;;;5108332;28;19904;-81
2024/01/01 10:14:46;;;;;;;;;;;9.10;99.90;;;;;;5094477;28;19915;-81
2024/01/01 10:17:13;;;;;;;;;;;9.20;99.90;;;;;;5089577;28;20292;-81
2024/01/01 10:19:52;;;;;;;;;;;9.20;99.90;;;;;;5091715;28;19915;-81
2024/01/01 10:22:18;;;;;;;;;;;9.30;99.90;;;;;;5099093;28;19908;-81
2024/01/01 10:24:45;;;;;;;;;;;9.40;99.90;;;;;;5094882;28;19998;-80
2024/01/01 10:27:11;;;;;;;;;;;9.50;99.90;;;;;;5104860;28;19947;-85
2024/01/01 10:29:37;;;;;;;;;;;9.70;99.90;;;;;;5090000;28;20413;-82
2024/01/01 10:32:04;;;;;;;;;;;9.80;99.90;;;;;;5103211;28;19933;-83
2024/01/01 10:34:32;;;;;;;;;;;9.90;99.90;;;;;;5097909;28;20360;-82
2024/01/01 10:36:59;;;;;;;;;;;10.00;99.90;;;;;;5099651;28;19916;-82
2024/01/01 10:39:24;;;;;;;;;;;10.10;99.90;;;;;;5106843;28;20423;-86
2024/01/01 10:41:50;;;;;;;;;;;10.20;99.90;;;;;;5096753;28;19958;-82
2024/01/01 10:44:16;;;;;;;;;;;10.30;99.90;;;;;;5095990;28;19953;-84
2024/01/01 10:46:45;;;;;;;;;;;10.40;99.90;;;;;;5093178;28;19912;-81
2024/01/01 10:49:16;;;;;;;;;;;10.40;99.90;;;;;;5091157;28;19908;-80
2024/01/01 10:52:00;;;;;;;;;;;10.40;99.90;;;;;;5094692;28;19908;-86
2024/01/01 10:54:31;;;;;;;;;;;10.40;99.90;;;;;;5094738;28;19916;-82
2024/01/01 10:57:06;;;;;;;;;;;10.30;99.90;;;;;;5105941;28;19919;-87
2024/01/01 10:59:58;;;;;;;;;;;10.30;99.90;;;;;;5095299;28;20061;-81
2024/01/01 11:02:23;;;;;;;;;;;10.30;99.90;;;;;;5098119;28;19952;-83
2024/01/01 11:05:04;;;;;;;;;;;10.30;99.90;;;;;;5102063;28;19908;-84
2024/01/01 11:07:48;;;;;;;;;;;10.30;99.90;;;;;;5093132;28;19907;-84
2024/01/01 11:10:33;;;;;;;;;;;10.30;99.90;;;;;;5094558;28;20653;-82
2024/01/01 11:12:58;;;;;;;;;;;10.30;99.90;;;;;;5080133;28;19908;-85
2024/01/01 11:15:43;;;;;;;;;;;10.30;99.90;;;;;;5102966;28;19908;-83
2024/01/01 11:18:12;;;;;;;;;;;10.40;99.90;;;;;;5100283;28;19911;-81
2024/01/01 11:21:00;;;;;;;;;;;10.40;99.90;;;;;;5107159;28;19904;-84
2024/01/01 11:23:45;;;;;;;;;;;10.50;99.90;;;;;;5094518;28;19988;-84
2024/01/01 11:26:23;;;;;;;;;;;10.60;99.90;;;;;;5104005;28;19907;-82
2024/01/01 11:28:48;;;;;;;;;;;10.60;99.90;;;;;;5103673;28;20291;-84
2024/01/01 11:31:13;;;;;;;;;;;10.60;99.90;;;;;;5105312;28;19915;-81
2024/01/01 11:33:39;;;;;;;;;;;10.80;99.90;;;;;;5099849;28;19908;-81
2024/01/01 11:36:06;;;;;;;;;;;10.80;99.90;;;;;;5100069;28;19912;-80
2024/01/01 11:38:31;;;;;;;;;;;10.90;99.90;;;;;;5080027;28;19939;-83
2024/01/01 11:40:57;;;;;;;;;;;11.00;99.90;;;;;;5092494;28;19908;-82
2024/01/01 11:43:22;;;;;;;;;;;11.00;99.90;;;;;;5093928;28;20374;-84
2024/01/01 11:45:48;;;;;;;;;;;11.10;99.90;;;;;;5094746;28;20081;-79
2024/01/01 11:48:13;;;;;;;;;;;11.10;99.90;;;;;;5094714;28;19915;-84
2024/01/01 11:50:39;;;;;;;;;;;11.20;99.90;;;;;;5105763;28;19912;-84
2024/01/01 11:53:05;;;;;;;;;;;11.20;99.90;;;;;;5093735;28;20411;-84
2024/01/01 11:55:31;;;;;;;;;;;11.20;99.90;;;;;;5098241;28;19987;-84
2024/01/01 11:57:57;;;;;;;;;;;11.20;99.90;;;;;;5108989;28;19916;-82
2024/01/01 12:00:24;;;;;;;;;;;11.30;99.90;;;;;;5105030;28;19910;-82
2024/01/01 12:02:50;;;;;;;;;;;11.30;99.90;;;;;;5091516;28;19998;-84
2024/01/01 12:05:19;;;;;;;;;;;11.30;99.90;;;;;;5103900;28;19947;-82
2024/01/01 12:07:45;;;;;;;;;;;11.40;99.90;;;;;;5093572;28;19908;-79
2024/01/01 12:10:15;;;;;;;;;;;11.40;99.90;;;;;;5107567;28;19915;-79
2024/01/01 12:12:42;;;;;;;;;;;11.50;99.90;;;;;;5093716;28;20002;-80
2024/01/01 12:15:08;;;;;;;;;;;11.50;99.90;;;;;;5099029;28;19912;-80
2024/01/01 12:17:37;;;;;;;;;;;11.60;99.90;;;;;;5092066;28;19919;-77
2024/01/01 12:20:03;;;;;;;;;;;11.60;99.90;;;;;;5092274;28;19915;-80
2024/01/01 12:22:29;;;;;;;;;;;11.60;99.90;;;;;;5091871;28;20441;-82
2024/01/01 12:24:58;;;;;;;;;;;11.70;99.90;;;;;;5091494;28;19919;-81
2024/01/01 12:27:23;;;;;;;;;;;11.70;99.90;;;;;;5091927;28;20467;-79
2024/01/01 12:29:49;;;;;;;;;;;11.80;99.90;;;;;;5091596;28;20006;-80
2024/01/01 12:32:15;;;;;;;;;;;11.80;99.90;;;;;;5097065;28;19912;-82
2024/01/01 12:34:40;;;;;;;;;;;11.80;99.90;;;;;;5092956;28;20716;-79
2024/01/01 12:37:06;;;;;;;;;;;11.90;99.90;;;;;;5096256;28;19912;-83
2024/01/01 12:39:32;;;;;;;;;;;11.90;99.90;;;;;;5094481;28;19915;-77
2024/01/01 12:41:57;;;;;;;;;;;11.90;99.90;;;;;;5093009;28;19930;-83
2024/01/01 12:44:23;;;;;;;;;;;11.90;99.90;;;;;;5100950;28;19961;-81
2024/01/01 12:46:49;;;;;;;;;;;11.90;99.90;;;;;;5111669;28;19960;-80
2024/01/01 12:49:14;;;;;;;;;;;11.90;99.90;;;;;;5111606;27;19912;-78
2024/01/01 12:51:40;;;;;;;;;;;11.90;99.90;;;;;;5095534;28;19922;-80
2024/01/01 12:54:05;;;;;;;;;;;11.90;99.90;;;;;;5091312;28;19908;-83
2024/01/01 12:56:32;;;;;;;;;;;11.90;99.90;;;;;;5097611;28;19926;-84
2024/01/01 12:58:57;;;;;;;;;;;11.90;99.90;;;;;;5092500;28;19956;-81
2024/01/01 13:01:23;;;;;;;;;;;11.90;99.90;;;;;;5094735;28;19904;-82
2024/01/01 13:03:49;;;;;;;;;;;11.90;99.90;;;;;;5106185;28;19912;-83
2024/01/01 13:06:15;;;;;;;;;;;11.90;99.90;;;;;;5102817;28;19929;-77
2024/01/01 13:08:42;;;;;;;;;;;12.00;99.90;;;;;;5099353;28;20361;-81
2024/01/01 13:11:07;;;;;;;;;;;12.00;99.90;;;;;;5100131;28;19919;-79
2024/01/01 13:13:33;;;;;;;;;;;12.00;99.90;;;;;;5097565;28;20284;-80
2024/01/01 13:16:00;;;;;;;;;;;12.00;99.90;;;;;;5102247;28;20500;-78
2024/01/01 13:18:25;;;;;;;;;;;12.00;99.90;;;;;;5102312;28;19957;-80
2024/01/01 13:20:51;;;;;;;;;;;12.00;99.90;;;;;;5105174;28;19904;-77
2024/01/01 13:23:16;;;;;;;;;;;12.10;99.90;;;;;;5100715;28;20450;-81
2024/01/01 13:25:45;;;;;;;;;;;12.00;99.90;;;;;;5103959;28;19923;-80
2024/01/01 13:28:10;;;;;;;;;;;12.00;99.90;;;;;;5101895;28;19969;-82
2024/01/01 13:30:38;;;;;;;;;;;12.00;99.90;;;;;;5104230;28;19904;-78
2024/01/01 13:33:06;;;;;;;;;;;12.00;99.90;;;;;;5102104;28;19907;-80
2024/01/01 13:35:32;;;;;;;;;;;11.90;99.90;;;;;;5105241;27;20672;-81
2024/01/01 13:37:58;;;;;;;;;;;11.90;99.90;;;;;;5103606;28;19916;-81
2024/01/01 13:40:23;;;;;;;;;;;11.90;99.90;;;;;;5104461;28;19911;-81
2024/01/01 13:42:50;;;;;;;;;;;11.90;99.90;;;;;;5100765;28;19904;-80
2024/01/01 13:45:15;;;;;;;;;;;11.90;99.90;;;;;;5103952;28;19936;-82
2024/01/01 13:47:41;;;;;;;;;;;11.80;99.90;;;;;;5101274;28;19911;-79
2024/01/01 13:50:07;;;;;;;;;;;11.90;99.90;;;;;;5104788;28;19904;-81
2024/01/01 13:52:34;;;;;;;;;;;11.90;99.90;;;;;;5100981;28;19908;-80
2024/01/01 13:55:00;;;;;;;;;;;11.90;99.90;;;;;;5102702;28;19915;-83
2024/01/01 13:57:25;;;;;;;;;;;12.00;99.90;;;;;;5102057;28;19912;-81
2024/01/01 13:59:51;;;;;;;;;;;12.00;99.90;;;;;;5102646;28;19912;-81
2024/01/01 14:02:16;;;;;;;;;;;12.00;99.90;;;;;;5101180;28;19923;-81
2024/01/01 14:04:42;;;;;;;;;;;12.00;99.90;;;;;;5103185;28;19971;-82
2024/01/01 14:07:08;;;;;;;;;;;12.00;99.90;;;;;;5100927;28;19912;-80
2024/01/01 14:09:35;;;;;;;;;;;11.90;99.90;;;;;;5098829;28;19914;-81
2024/01/01 14:12:03;;;;;;;;;;;11.90;99.90;;;;;;5100956;28;19911;-82
2024/01/01 14:14:29;;;;;;;;;;;11.90;99.90;;;;;;5120870;28;19911;-80
2024/01/01 14:16:54;;;;;;;;;;;11.90;99.90;;;;;;5101075;28;20439;-80
2024/01/01 14:19:20;;;;;;;;;;;11.90;99.90;;;;;;5100008;27;20345;-79
2024/01/01 14:21:45;;;;;;;;;;;11.90;99.90;;;;;;5108487;28;19911;-80